sensor_id;sensor_type;location;lat;lon;timestamp;pressure;altitude;pressure_sealevel;temperature;humidity
53262;BME280;39658;51.090;-1.786;2023-03-04T00:01:29;102312.66;;;3.21;100.00
53262;BME280;39658;51.090;-1.786;2023-03-04T00:03:56;102314.31;;;3.28;100.00
53262;BME280;39658;51.090;-1.786;2023-03-04T00:06:23;102314.25;;;3.34;100.00
53262;BME280;39658;51.090;-1.786;2023-03-04T00:08:50;102312.44;;;3.41;100.00
53262;BME280;39658;51.090;-1.786;2023-03-04T00:11:16;102317.72;;;3.35;100.00
53262;BME280;39658;51.090;-1.786;2023-03-04T00:13:45;102320.38;;;3.30;100.00
53262;BME280;39658;51.090;-1.786;2023-03-04T00:16:11;102326.47;;;3.29;100.00
53262;BME280;39658;51.090;-1.786;2023-03-04T00:18:38;102318.53;;;3.40;100.00
53262;BME280;39658;51.090;-1.786;2023-03-04T00:21:05;102314.97;;;3.49;100.00
53262;BME280;39658;51.090;-1.786;2023-03-04T00:23:32;102318.38;;;3.55;100.00
53262;BME280;39658;51.090;-1.786;2023-03-04T00:25:59;102322.69;;;3.59;100.00
53262;BME280;39658;51.090;-1.786;2023-03-04T00:28:25;102321.78;;;3.62;100.00
53262;BME280;39658;51.090;-1.786;2023-03-04T00:30:53;102330.41;;;3.67;100.00
53262;BME280;39658;51.090;-1.786;2023-03-04T00:33:20;102321.78;;;3.64;100.00
53262;BME280;39658;51.090;-1.786;2023-03-04T00:35:47;102327.94;;;3.56;100.00
53262;BME280;39658;51.090;-1.786;2023-03-04T00:38:14;102329.72;;;3.51;100.00
53262;BME280;39658;51.090;-1.786;2023-03-04T00:40:40;102316.78;;;3.42;100.00
53262;BME280;39658;51.090;-1.786;2023-03-04T00:43:07;102334.22;;;3.37;100.00
53262;BME280;39658;51.090;-1.786;2023-03-04T00:45:34;102334.22;;;3.34;100.00
53262;BME280;39658;51.090;-1.786;2023-03-04T00:48:03;102329.03;;;3.34;100.00
53262;BME280;39658;51.090;-1.786;2023-03-04T00:50:29;102329.97;;;3.28;100.00
53262;BME280;39658;51.090;-1.786;2023-03-04T00:52:56;102331.59;;;3.38;100.00
53262;BME280;39658;51.090;-1.786;2023-03-04T00:55:23;102331.56;;;3.41;100.00
53262;BME280;39658;51.090;-1.786;2023-03-04T00:57:50;102327.22;;;3.44;100.00
53262;BME280;39658;51.090;-1.786;2023-03-04T01:00:18;102329.88;;;3.37;100.00
53262;BME280;39658;51.090;-1.786;2023-03-04T01:02:44;102331.63;;;3.34;100.00
53262;BME280;39658;51.090;-1.786;2023-03-04T01:05:13;102329.09;;;3.28;100.00
53262;BME280;39658;51.090;-1.786;2023-03-04T01:07:40;102327.44;;;3.20;100.00
53262;BME280;39658;51.090;-1.786;2023-03-04T01:10:11;102324.91;;;3.11;100.00
53262;BME280;39658;51.090;-1.786;2023-03-04T01:12:38;102318.91;;;3.01;100.00
53262;BME280;39658;51.090;-1.786;2023-03-04T01:15:07;102330.19;;;3.05;100.00
53262;BME280;39658;51.090;-1.786;2023-03-04T01:17:34;102337.09;;;3.06;100.00
53262;BME280;39658;51.090;-1.786;2023-03-04T01:20:01;102338.03;;;3.02;100.00
53262;BME280;39658;51.090;-1.786;2023-03-04T01:22:29;102337.19;;;3.00;100.00
53262;BME280;39658;51.090;-1.786;2023-03-04T01:24:56;102339.78;;;2.98;100.00
53262;BME280;39658;51.090;-1.786;2023-03-04T01:27:22;102338.88;;;3.01;100.00
53262;BME280;39658;51.090;-1.786;2023-03-04T01:29:49;102330.16;;;3.07;100.00
53262;BME280;39658;51.090;-1.786;2023-03-04T01:32:16;102336.25;;;3.05;100.00
53262;BME280;39658;51.090;-1.786;2023-03-04T01:34:43;102336.25;;;3.02;100.00
53262;BME280;39658;51.090;-1.786;2023-03-04T01:37:10;102328.44;;;3.02;100.00
53262;BME280;39658;51.090;-1.786;2023-03-04T01:39:39;102330.13;;;3.10;100.00
53262;BME280;39658;51.090;-1.786;2023-03-04T01:42:12;102327.47;;;3.17;100.00
53262;BME280;39658;51.090;-1.786;2023-03-04T01:44:42;102323.13;;;3.15;100.00
53262;BME280;39658;51.090;-1.786;2023-03-04T01:47:09;102323.06;;;3.22;100.00
53262;BME280;39658;51.090;-1.786;2023-03-04T01:49:36;102312.59;;;3.27;100.00
53262;BME280;39658;51.090;-1.786;2023-03-04T01:52:03;102307.41;;;3.22;100.00
53262;BME280;39658;51.090;-1.786;2023-03-04T01:54:31;102305.63;;;3.26;100.00
53262;BME280;39658;51.090;-1.786;2023-03-04T01:56:59;102302.16;;;3.29;100.00
53262;BME280;39658;51.090;-1.786;2023-03-04T01:59:29;102294.28;;;3.32;100.00
53262;BME280;39658;51.090;-1.786;2023-03-04T02:01:58;102288.28;;;3.27;100.00
53262;BME280;39658;51.090;-1.786;2023-03-04T02:04:27;102289.94;;;3.32;100.00
53262;BME280;39658;51.090;-1.786;2023-03-04T02:06:55;102296.91;;;3.30;100.00
53262;BME280;39658;51.090;-1.786;2023-03-04T02:09:23;102291.72;;;3.29;100.00
53262;BME280;39658;51.090;-1.786;2023-03-04T02:11:51;102285.69;;;3.25;100.00
53262;BME280;39658;51.090;-1.786;2023-03-04T02:14:20;102282.19;;;3.26;100.00
53262;BME280;39658;51.090;-1.786;2023-03-04T02:16:48;102281.25;;;3.33;100.00
53262;BME280;39658;51.090;-1.786;2023-03-04T02:19:19;102293.50;;;3.27;100.00
53262;BME280;39658;51.090;-1.786;2023-03-04T02:21:51;102283.94;;;3.26;100.00
53262;BME280;39658;51.090;-1.786;2023-03-04T02:24:22;102284.78;;;3.24;100.00
53262;BME280;39658;51.090;-1.786;2023-03-04T02:26:53;102283.16;;;3.17;100.00
53262;BME280;39658;51.090;-1.786;2023-03-04T02:29:20;102283.16;;;3.16;100.00
53262;BME280;39658;51.090;-1.786;2023-03-04T02:31:49;102275.34;;;3.16;100.00
53262;BME280;39658;51.090;-1.786;2023-03-04T02:34:19;102282.28;;;3.14;100.00
53262;BME280;39658;51.090;-1.786;2023-03-04T02:36:47;102282.34;;;3.09;100.00
53262;BME280;39658;51.090;-1.786;2023-03-04T02:39:22;102279.75;;;3.08;100.00
53262;BME280;39658;51.090;-1.786;2023-03-04T02:41:51;102282.28;;;3.14;100.00
53262;BME280;39658;51.090;-1.786;2023-03-04T02:44:21;102278.88;;;3.09;100.00
53262;BME280;39658;51.090;-1.786;2023-03-04T02:46:49;102278.06;;;3.05;100.00
53262;BME280;39658;51.090;-1.786;2023-03-04T02:49:16;102285.84;;;3.08;100.00
53262;BME280;39658;51.090;-1.786;2023-03-04T02:51:43;102284.09;;;3.09;100.00
53262;BME280;39658;51.090;-1.786;2023-03-04T02:54:14;102287.50;;;3.14;100.00
53262;BME280;39658;51.090;-1.786;2023-03-04T02:56:44;102291.03;;;3.11;100.00
53262;BME280;39658;51.090;-1.786;2023-03-04T02:59:11;102285.00;;;3.04;100.00
53262;BME280;39658;51.090;-1.786;2023-03-04T03:01:40;102280.63;;;3.10;100.00
53262;BME280;39658;51.090;-1.786;2023-03-04T03:04:07;102284.91;;;3.14;100.00
53262;BME280;39658;51.090;-1.786;2023-03-04T03:06:34;102284.88;;;3.15;100.00
53262;BME280;39658;51.090;-1.786;2023-03-04T03:09:01;102282.25;;;3.18;100.00
53262;BME280;39658;51.090;-1.786;2023-03-04T03:11:28;102290.06;;;3.18;100.00
53262;BME280;39658;51.090;-1.786;2023-03-04T03:13:55;102277.00;;;3.23;100.00
53262;BME280;39658;51.090;-1.786;2023-03-04T03:16:22;102282.16;;;3.28;100.00
53262;BME280;39658;51.090;-1.786;2023-03-04T03:18:51;102284.84;;;3.20;100.00
53262;BME280;39658;51.090;-1.786;2023-03-04T03:21:17;102278.00;;;3.10;100.00
53262;BME280;39658;51.090;-1.786;2023-03-04T03:23:44;102278.03;;;3.08;100.00
53262;BME280;39658;51.090;-1.786;2023-03-04T03:26:11;102277.13;;;3.09;100.00
53262;BME280;39658;51.090;-1.786;2023-03-04T03:28:38;102276.28;;;3.09;100.00
53262;BME280;39658;51.090;-1.786;2023-03-04T03:31:05;102274.53;;;3.09;100.00
53262;BME280;39658;51.090;-1.786;2023-03-04T03:33:31;102286.66;;;3.15;100.00
53262;BME280;39658;51.090;-1.786;2023-03-04T03:36:00;102279.69;;;3.15;100.00
53262;BME280;39658;51.090;-1.786;2023-03-04T03:38:27;102277.16;;;3.08;100.00
53262;BME280;39658;51.090;-1.786;2023-03-04T03:40:53;102286.66;;;3.12;100.00
53262;BME280;39658;51.090;-1.786;2023-03-04T03:43:20;102294.53;;;3.09;100.00
53262;BME280;39658;51.090;-1.786;2023-03-04T03:45:47;102284.88;;;3.17;100.00
53262;BME280;39658;51.090;-1.786;2023-03-04T03:48:14;102278.69;;;3.27;100.00
53262;BME280;39658;51.090;-1.786;2023-03-04T03:50:40;102275.22;;;3.30;100.00
53262;BME280;39658;51.090;-1.786;2023-03-04T03:53:08;102275.28;;;3.23;100.00
53262;BME280;39658;51.090;-1.786;2023-03-04T03:55:35;102273.53;;;3.22;100.00
53262;BME280;39658;51.090;-1.786;2023-03-04T03:58:03;102278.81;;;3.15;100.00
53262;BME280;39658;51.090;-1.786;2023-03-04T04:00:30;102281.47;;;3.10;100.00
53262;BME280;39658;51.090;-1.786;2023-03-04T04:02:57;102277.13;;;3.09;100.00
53262;BME280;39658;51.090;-1.786;2023-03-04T04:05:25;102277.16;;;3.04;100.00
53262;BME280;39658;51.090;-1.786;2023-03-04T04:07:52;102271.09;;;3.05;100.00
53262;BME280;39658;51.090;-1.786;2023-03-04T04:10:20;102282.31;;;3.12;100.00
53262;BME280;39658;51.090;-1.786;2023-03-04T04:12:47;102275.44;;;3.08;100.00
53262;BME280;39658;51.090;-1.786;2023-03-04T04:15:14;102282.41;;;3.01;100.00
53262;BME280;39658;51.090;-1.786;2023-03-04T04:17:40;102287.59;;;3.06;100.00
53262;BME280;39658;51.090;-1.786;2023-03-04T04:20:08;102278.97;;;2.99;100.00
53262;BME280;39658;51.090;-1.786;2023-03-04T04:22:35;102286.81;;;2.98;100.00
53262;BME280;39658;51.090;-1.786;2023-03-04T04:25:02;102292.88;;;3.00;100.00
53262;BME280;39658;51.090;-1.786;2023-03-04T04:27:31;102292.03;;;2.96;100.00
53262;BME280;39658;51.090;-1.786;2023-03-04T04:29:57;102292.03;;;2.95;100.00
53262;BME280;39658;51.090;-1.786;2023-03-04T04:32:24;102296.41;;;2.93;100.00
53262;BME280;39658;51.090;-1.786;2023-03-04T04:34:51;102292.94;;;2.95;100.00
53262;BME280;39658;51.090;-1.786;2023-03-04T04:37:18;102292.81;;;3.03;100.00
53262;BME280;39658;51.090;-1.786;2023-03-04T04:39:45;102291.88;;;3.12;100.00
53262;BME280;39658;51.090;-1.786;2023-03-04T04:42:12;102289.31;;;3.09;100.00
53262;BME280;39658;51.090;-1.786;2023-03-04T04:44:40;102294.50;;;3.10;100.00
53262;BME280;39658;51.090;-1.786;2023-03-04T04:47:07;102300.63;;;3.04;100.00
53262;BME280;39658;51.090;-1.786;2023-03-04T04:49:34;102299.78;;;3.04;100.00
53262;BME280;39658;51.090;-1.786;2023-03-04T04:52:01;102306.81;;;2.94;100.00
53262;BME280;39658;51.090;-1.786;2023-03-04T04:54:28;102308.63;;;2.86;100.00
53262;BME280;39658;51.090;-1.786;2023-03-04T04:56:55;102314.69;;;2.86;100.00
53262;BME280;39658;51.090;-1.786;2023-03-04T04:59:22;102321.66;;;2.86;100.00
53262;BME280;39658;51.090;-1.786;2023-03-04T05:01:50;102315.50;;;2.93;100.00
53262;BME280;39658;51.090;-1.786;2023-03-04T05:04:17;102317.19;;;3.00;100.00
53262;BME280;39658;51.090;-1.786;2023-03-04T05:06:44;102306.78;;;2.99;100.00
53262;BME280;39658;51.090;-1.786;2023-03-04T05:09:11;102308.47;;;3.01;100.00
53262;BME280;39658;51.090;-1.786;2023-03-04T05:11:38;102295.59;;;2.89;100.00
53262;BME280;39658;51.090;-1.786;2023-03-04T05:14:04;102314.63;;;2.96;100.00
53262;BME280;39658;51.090;-1.786;2023-03-04T05:16:31;102310.22;;;2.99;100.00
53262;BME280;39658;51.090;-1.786;2023-03-04T05:18:59;102314.53;;;3.05;100.00
53262;BME280;39658;51.090;-1.786;2023-03-04T05:21:26;102314.56;;;3.03;100.00
53262;BME280;39658;51.090;-1.786;2023-03-04T05:23:53;102317.19;;;2.99;100.00
53262;BME280;39658;51.090;-1.786;2023-03-04T05:26:20;102311.16;;;2.95;100.00
53262;BME280;39658;51.090;-1.786;2023-03-04T05:28:46;102316.41;;;2.91;100.00
53262;BME280;39658;51.090;-1.786;2023-03-04T05:31:13;102310.28;;;2.93;100.00
53262;BME280;39658;51.090;-1.786;2023-03-04T05:33:40;102318.09;;;2.93;100.00
53262;BME280;39658;51.090;-1.786;2023-03-04T05:36:09;102318.09;;;2.95;100.00
53262;BME280;39658;51.090;-1.786;2023-03-04T05:38:36;102324.22;;;2.92;100.00
53262;BME280;39658;51.090;-1.786;2023-03-04T05:41:04;102318.16;;;2.88;100.00
53262;BME280;39658;51.090;-1.786;2023-03-04T05:43:32;102310.34;;;2.85;100.00
53262;BME280;39658;51.090;-1.786;2023-03-04T05:46:00;102303.47;;;2.81;100.00
53262;BME280;39658;51.090;-1.786;2023-03-04T05:48:27;102311.31;;;2.78;100.00
53262;BME280;39658;51.090;-1.786;2023-03-04T05:50:55;102305.19;;;2.79;100.00
53262;BME280;39658;51.090;-1.786;2023-03-04T05:53:24;102300.88;;;2.80;100.00
53262;BME280;39658;51.090;-1.786;2023-03-04T05:55:51;102306.91;;;2.85;100.00
53262;BME280;39658;51.090;-1.786;2023-03-04T05:58:18;102302.50;;;2.92;100.00
53262;BME280;39658;51.090;-1.786;2023-03-04T06:00:46;102312.94;;;2.87;100.00
53262;BME280;39658;51.090;-1.786;2023-03-04T06:03:14;102312.91;;;2.90;100.00
53262;BME280;39658;51.090;-1.786;2023-03-04T06:05:42;102310.31;;;2.92;100.00
53262;BME280;39658;51.090;-1.786;2023-03-04T06:08:09;102316.44;;;2.89;100.00
53262;BME280;39658;51.090;-1.786;2023-03-04T06:10:39;102314.72;;;2.82;100.00
53262;BME280;39658;51.090;-1.786;2023-03-04T06:13:06;102319.03;;;2.87;100.00
53262;BME280;39658;51.090;-1.786;2023-03-04T06:15:33;102314.69;;;2.88;100.00
53262;BME280;39658;51.090;-1.786;2023-03-04T06:18:00;102319.94;;;2.83;100.00
53262;BME280;39658;51.090;-1.786;2023-03-04T06:20:27;102325.16;;;2.82;100.00
53262;BME280;39658;51.090;-1.786;2023-03-04T06:22:53;102322.53;;;2.82;100.00
53262;BME280;39658;51.090;-1.786;2023-03-04T06:25:20;102322.53;;;2.82;100.00
53262;BME280;39658;51.090;-1.786;2023-03-04T06:27:48;102322.53;;;2.82;100.00
53262;BME280;39658;51.090;-1.786;2023-03-04T06:30:15;102324.34;;;2.77;100.00
53262;BME280;39658;51.090;-1.786;2023-03-04T06:32:42;102324.31;;;2.80;100.00
53262;BME280;39658;51.090;-1.786;2023-03-04T06:35:11;102319.97;;;2.79;100.00
53262;BME280;39658;51.090;-1.786;2023-03-04T06:37:37;102329.53;;;2.80;100.00
53262;BME280;39658;51.090;-1.786;2023-03-04T06:40:05;102331.28;;;2.75;100.00
53262;BME280;39658;51.090;-1.786;2023-03-04T06:42:32;102337.34;;;2.80;100.00
53262;BME280;39658;51.090;-1.786;2023-03-04T06:45:01;102333.84;;;2.78;100.00
53262;BME280;39658;51.090;-1.786;2023-03-04T06:47:28;102339.06;;;2.76;100.00
53262;BME280;39658;51.090;-1.786;2023-03-04T06:49:55;102344.22;;;2.84;100.00
53262;BME280;39658;51.090;-1.786;2023-03-04T06:52:22;102332.13;;;2.80;100.00
53262;BME280;39658;51.090;-1.786;2023-03-04T06:54:49;102338.19;;;2.80;100.00
53262;BME280;39658;51.090;-1.786;2023-03-04T06:57:16;102345.16;;;2.77;100.00
53262;BME280;39658;51.090;-1.786;2023-03-04T06:59:42;102355.56;;;2.81;100.00
53262;BME280;39658;51.090;-1.786;2023-03-04T07:02:10;102353.88;;;2.74;100.00
53262;BME280;39658;51.090;-1.786;2023-03-04T07:04:37;102354.69;;;2.79;100.00
53262;BME280;39658;51.090;-1.786;2023-03-04T07:07:04;102361.66;;;2.76;100.00
53262;BME280;39658;51.090;-1.786;2023-03-04T07:09:31;102365.16;;;2.73;100.00
53262;BME280;39658;51.090;-1.786;2023-03-04T07:11:58;102361.69;;;2.73;100.00
53262;BME280;39658;51.090;-1.786;2023-03-04T07:14:25;102359.00;;;2.85;100.00
53262;BME280;39658;51.090;-1.786;2023-03-04T07:16:52;102358.19;;;2.78;100.00
53262;BME280;39658;51.090;-1.786;2023-03-04T07:19:20;102359.06;;;2.74;100.00
53262;BME280;39658;51.090;-1.786;2023-03-04T07:21:47;102364.25;;;2.77;100.00
53262;BME280;39658;51.090;-1.786;2023-03-04T07:24:14;102364.25;;;2.77;100.00
53262;BME280;39658;51.090;-1.786;2023-03-04T07:26:40;102357.25;;;2.82;100.00
53262;BME280;39658;51.090;-1.786;2023-03-04T07:29:07;102362.47;;;2.85;100.00
53262;BME280;39658;51.090;-1.786;2023-03-04T07:31:34;102363.28;;;2.95;100.00
53262;BME280;39658;51.090;-1.786;2023-03-04T07:34:03;102362.41;;;2.93;100.00
53262;BME280;39658;51.090;-1.786;2023-03-04T07:36:32;102365.00;;;2.93;100.00
53262;BME280;39658;51.090;-1.786;2023-03-04T07:38:59;102366.78;;;2.88;100.00
53262;BME280;39658;51.090;-1.786;2023-03-04T07:41:27;102372.00;;;2.86;100.00
53262;BME280;39658;51.090;-1.786;2023-03-04T07:43:55;102371.94;;;2.96;100.00
53262;BME280;39658;51.090;-1.786;2023-03-04T07:46:23;102364.03;;;3.07;100.00
53262;BME280;39658;51.090;-1.786;2023-03-04T07:48:50;102363.16;;;3.04;100.00
53262;BME280;39658;51.090;-1.786;2023-03-04T07:51:18;102361.47;;;3.00;100.00
53262;BME280;39658;51.090;-1.786;2023-03-04T07:53:48;102362.34;;;3.01;100.00
53262;BME280;39658;51.090;-1.786;2023-03-04T07:56:17;102364.94;;;3.02;100.00
53262;BME280;39658;51.090;-1.786;2023-03-04T07:58:45;102370.97;;;3.06;100.00
53262;BME280;39658;51.090;-1.786;2023-03-04T08:01:13;102361.41;;;3.08;100.00
53262;BME280;39658;51.090;-1.786;2023-03-04T08:03:41;102363.13;;;3.09;100.00
53262;BME280;39658;51.090;-1.786;2023-03-04T08:06:09;102361.44;;;3.07;100.00
53262;BME280;39658;51.090;-1.786;2023-03-04T08:08:37;102370.09;;;3.10;100.00
53262;BME280;39658;51.090;-1.786;2023-03-04T08:11:06;102359.69;;;3.07;100.00
53262;BME280;39658;51.090;-1.786;2023-03-04T08:13:34;102362.28;;;3.09;100.00
53262;BME280;39658;51.090;-1.786;2023-03-04T08:16:01;102377.00;;;3.16;100.00
53262;BME280;39658;51.090;-1.786;2023-03-04T08:18:27;102375.22;;;3.19;100.00
53262;BME280;39658;51.090;-1.786;2023-03-04T08:20:54;102377.78;;;3.24;100.00
53262;BME280;39658;51.090;-1.786;2023-03-04T08:23:21;102376.94;;;3.22;100.00
53262;BME280;39658;51.090;-1.786;2023-03-04T08:25:48;102385.59;;;3.26;100.00
53262;BME280;39658;51.090;-1.786;2023-03-04T08:28:16;102382.16;;;3.20;100.00
53262;BME280;39658;51.090;-1.786;2023-03-04T08:30:43;102383.03;;;3.21;100.00
53262;BME280;39658;51.090;-1.786;2023-03-04T08:33:10;102375.19;;;3.24;100.00
53262;BME280;39658;51.090;-1.786;2023-03-04T08:35:38;102385.63;;;3.22;100.00
53262;BME280;39658;51.090;-1.786;2023-03-04T08:38:05;102378.63;;;3.28;100.00
53262;BME280;39658;51.090;-1.786;2023-03-04T08:40:32;102379.50;;;3.28;100.00
53262;BME280;39658;51.090;-1.786;2023-03-04T08:42:59;102382.97;;;3.27;100.00
53262;BME280;39658;51.090;-1.786;2023-03-04T08:45:28;102381.19;;;3.32;100.00
53262;BME280;39658;51.090;-1.786;2023-03-04T08:47:55;102379.47;;;3.31;100.00
53262;BME280;39658;51.090;-1.786;2023-03-04T08:50:23;102384.63;;;3.39;100.00
53262;BME280;39658;51.090;-1.786;2023-03-04T08:52:52;102386.31;;;3.41;100.00
53262;BME280;39658;51.090;-1.786;2023-03-04T08:55:19;102381.09;;;3.40;100.00
53262;BME280;39658;51.090;-1.786;2023-03-04T08:57:46;102392.34;;;3.48;100.00
53262;BME280;39658;51.090;-1.786;2023-03-04T09:00:14;102385.41;;;3.47;100.00
53262;BME280;39658;51.090;-1.786;2023-03-04T09:02:43;102387.19;;;3.44;100.00
53262;BME280;39658;51.090;-1.786;2023-03-04T09:05:11;102390.63;;;3.47;100.00
53262;BME280;39658;51.090;-1.786;2023-03-04T09:07:38;102385.38;;;3.49;100.00
53262;BME280;39658;51.090;-1.786;2023-03-04T09:10:06;102375.84;;;3.46;100.00
53262;BME280;39658;51.090;-1.786;2023-03-04T09:12:33;102390.53;;;3.55;100.00
53262;BME280;39658;51.090;-1.786;2023-03-04T09:15:01;102390.56;;;3.53;100.00
53262;BME280;39658;51.090;-1.786;2023-03-04T09:17:30;102391.38;;;3.57;100.00
53262;BME280;39658;51.090;-1.786;2023-03-04T09:19:58;102392.25;;;3.57;100.00
53262;BME280;39658;51.090;-1.786;2023-03-04T09:22:26;102397.44;;;3.61;100.00
53262;BME280;39658;51.090;-1.786;2023-03-04T09:24:53;102395.66;;;3.64;100.00
53262;BME280;39658;51.090;-1.786;2023-03-04T09:27:20;102400.03;;;3.64;100.00
53262;BME280;39658;51.090;-1.786;2023-03-04T09:29:47;102399.00;;;3.75;100.00
53262;BME280;39658;51.090;-1.786;2023-03-04T09:32:15;102390.34;;;3.75;100.00
53262;BME280;39658;51.090;-1.786;2023-03-04T09:34:42;102395.53;;;3.76;100.00
53262;BME280;39658;51.090;-1.786;2023-03-04T09:37:11;102399.91;;;3.76;100.00
53262;BME280;39658;51.090;-1.786;2023-03-04T09:39:38;102391.97;;;3.82;100.00
53262;BME280;39658;51.090;-1.786;2023-03-04T09:42:07;102387.69;;;3.78;100.00
53262;BME280;39658;51.090;-1.786;2023-03-04T09:44:37;102402.41;;;3.84;100.00
53262;BME280;39658;51.090;-1.786;2023-03-04T09:47:08;102385.94;;;3.78;100.00
53262;BME280;39658;51.090;-1.786;2023-03-04T09:49:39;102389.34;;;3.84;100.00
53262;BME280;39658;51.090;-1.786;2023-03-04T09:52:17;102388.50;;;3.83;100.00
53262;BME280;39658;51.090;-1.786;2023-03-04T09:55:02;102391.91;;;3.90;100.00
53262;BME280;39658;51.090;-1.786;2023-03-04T09:57:39;102391.00;;;3.92;100.00
53262;BME280;39658;51.090;-1.786;2023-03-04T10:00:13;102393.56;;;3.97;100.00
53262;BME280;39658;51.090;-1.786;2023-03-04T10:02:55;102391.81;;;3.98;100.00
53262;BME280;39658;51.090;-1.786;2023-03-04T10:05:25;102389.09;;;4.05;100.00
53262;BME280;39658;51.090;-1.786;2023-03-04T10:07:57;102389.06;;;4.08;100.00
53262;BME280;39658;51.090;-1.786;2023-03-04T10:10:29;102387.38;;;4.06;100.00
53262;BME280;39658;51.090;-1.786;2023-03-04T10:12:59;102392.56;;;4.10;100.00
53262;BME280;39658;51.090;-1.786;2023-03-04T10:15:32;102385.56;;;4.12;100.00
53262;BME280;39658;51.090;-1.786;2023-03-04T10:18:03;102390.75;;;4.14;100.00
53262;BME280;39658;51.090;-1.786;2023-03-04T10:20:43;102387.25;;;4.18;100.00
53262;BME280;39658;51.090;-1.786;2023-03-04T10:23:18;102389.81;;;4.20;100.00
53262;BME280;39658;51.090;-1.786;2023-03-04T10:25:46;102386.28;;;4.22;100.00
53262;BME280;39658;51.090;-1.786;2023-03-04T10:28:20;102386.28;;;4.22;100.00
53262;BME280;39658;51.090;-1.786;2023-03-04T10:30:54;102375.09;;;4.14;100.00
53262;BME280;39658;51.090;-1.786;2023-03-04T10:33:25;102376.78;;;4.20;100.00
53262;BME280;39658;51.090;-1.786;2023-03-04T10:35:58;102378.50;;;4.19;100.00
53262;BME280;39658;51.090;-1.786;2023-03-04T10:38:29;102384.53;;;4.26;100.00
53262;BME280;39658;51.090;-1.786;2023-03-04T10:40:57;102373.16;;;4.28;100.00
53262;BME280;39658;51.090;-1.786;2023-03-04T10:43:25;102371.34;;;4.37;100.00
53262;BME280;39658;51.090;-1.786;2023-03-04T10:45:54;102372.16;;;4.40;100.00
53262;BME280;39658;51.090;-1.786;2023-03-04T10:48:24;102374.72;;;4.42;100.00
53262;BME280;39658;51.090;-1.786;2023-03-04T10:50:50;102368.63;;;4.44;100.00
53262;BME280;39658;51.090;-1.786;2023-03-04T10:53:24;102363.41;;;4.44;100.00
53262;BME280;39658;51.090;-1.786;2023-03-04T10:55:55;102372.03;;;4.49;100.00
53262;BME280;39658;51.090;-1.786;2023-03-04T10:58:22;102366.78;;;4.51;100.00
53262;BME280;39658;51.090;-1.786;2023-03-04T11:00:58;102363.41;;;4.44;100.00
53262;BME280;39658;51.090;-1.786;2023-03-04T11:03:30;102361.66;;;4.43;100.00
53262;BME280;39658;51.090;-1.786;2023-03-04T11:08:48;102358.97;;;4.48;100.00
53262;BME280;39658;51.090;-1.786;2023-03-04T11:11:36;102360.72;;;4.49;100.00
53262;BME280;39658;51.090;-1.786;2023-03-04T11:14:15;102356.38;;;4.48;100.00
53262;BME280;39658;51.090;-1.786;2023-03-04T11:16:52;102356.31;;;4.53;100.00
53262;BME280;39658;51.090;-1.786;2023-03-04T11:19:22;102356.28;;;4.54;100.00
53262;BME280;39658;51.090;-1.786;2023-03-04T11:21:50;102356.16;;;4.62;100.00
53262;BME280;39658;51.090;-1.786;2023-03-04T11:24:22;102346.59;;;4.61;100.00
53262;BME280;39658;51.090;-1.786;2023-03-04T11:26:55;102350.00;;;4.64;100.00
53262;BME280;39658;51.090;-1.786;2023-03-04T11:29:25;102342.94;;;4.73;100.00
53262;BME280;39658;51.090;-1.786;2023-03-04T11:31:57;102340.13;;;4.87;100.00
53262;BME280;39658;51.090;-1.786;2023-03-04T11:34:33;102337.47;;;4.88;100.00
53262;BME280;39658;51.090;-1.786;2023-03-04T11:37:07;102340.91;;;4.90;100.00
53262;BME280;39658;51.090;-1.786;2023-03-04T11:39:37;102329.72;;;4.83;100.00
53262;BME280;39658;51.090;-1.786;2023-03-04T11:42:12;102329.78;;;4.79;100.00
53262;BME280;39658;51.090;-1.786;2023-03-04T11:44:42;102331.41;;;4.84;100.00
53262;BME280;39658;51.090;-1.786;2023-03-04T11:50:22;102331.34;;;4.89;100.00
53262;BME280;39658;51.090;-1.786;2023-03-04T11:53:16;102326.09;;;4.91;100.00
53262;BME280;39658;51.090;-1.786;2023-03-04T11:55:51;102322.63;;;4.90;100.00
53262;BME280;39658;51.090;-1.786;2023-03-04T11:58:40;102321.63;;;4.99;100.00
53262;BME280;39658;51.090;-1.786;2023-03-04T12:01:14;102322.44;;;5.01;100.00
53262;BME280;39658;51.090;-1.786;2023-03-04T12:04:02;102313.63;;;5.07;100.00
53262;BME280;39658;51.090;-1.786;2023-03-04T12:06:41;102319.66;;;5.12;100.00
53262;BME280;39658;51.090;-1.786;2023-03-04T12:09:21;102298.88;;;5.04;100.00
53262;BME280;39658;51.090;-1.786;2023-03-04T12:11:57;102316.16;;;5.13;100.00
53262;BME280;39658;51.090;-1.786;2023-03-04T12:14:33;102305.59;;;5.19;100.00
53262;BME280;39658;51.090;-1.786;2023-03-04T12:20:15;102298.66;;;5.16;100.00
53262;BME280;39658;51.090;-1.786;2023-03-04T12:22:47;102295.19;;;5.16;100.00
53262;BME280;39658;51.090;-1.786;2023-03-04T12:25:36;102295.22;;;5.13;100.00
53262;BME280;39658;51.090;-1.786;2023-03-04T12:31:19;102283.78;;;5.18;100.00
53262;BME280;39658;51.090;-1.786;2023-03-04T12:33:58;102278.56;;;5.18;100.00
53262;BME280;39658;51.090;-1.786;2023-03-04T12:36:34;102274.16;;;5.22;100.00
53262;BME280;39658;51.090;-1.786;2023-03-04T12:39:18;102268.75;;;5.30;100.00
53262;BME280;39658;51.090;-1.786;2023-03-04T12:41:55;102271.25;;;5.36;100.00
53262;BME280;39658;51.090;-1.786;2023-03-04T12:44:24;102268.53;;;5.40;100.00
53262;BME280;39658;51.090;-1.786;2023-03-04T12:47:12;102263.19;;;5.47;100.00
53262;BME280;39658;51.090;-1.786;2023-03-04T12:49:54;102254.50;;;5.45;100.00
53262;BME280;39658;51.090;-1.786;2023-03-04T12:52:38;102255.28;;;5.50;100.00
53262;BME280;39658;51.090;-1.786;2023-03-04T12:55:13;102245.00;;;5.40;100.00
53262;BME280;39658;51.090;-1.786;2023-03-04T12:57:41;102252.06;;;5.37;100.00
53262;BME280;39658;51.090;-1.786;2023-03-04T13:00:19;102250.31;;;5.36;100.00
53262;BME280;39658;51.090;-1.786;2023-03-04T13:03:01;102239.72;;;5.42;100.00